Time;durP1;ratioP1;P1;durP2;ratioP2;P2;SDS_P1;SDS_P2;PMS_P1;PMS_P2;Temp;Humidity;BMP_temperature;BMP_pressure;BME280_temperature;BME280_humidity;BME280_pressure;Samples;Min_cycle;Max_cycle;Signal;HPM_P1;HPM_P2
2021/12/20 00:00:08;;;;;;;9.57;2.63;;;7.70;99.90;;;;;;5002207;28;20644;-68
2021/12/20 00:02:35;;;;;;;3.67;2.37;;;7.60;99.90;;;;;;5006366;28;20466;-68
2021/12/20 00:05:02;;;;;;;12.87;2.83;;;7.60;99.90;;;;;;4993136;28;20733;-67
2021/12/20 00:07:30;;;;;;;5.20;2.70;;;7.60;99.90;;;;;;4996110;28;20447;-67
2021/12/20 00:09:58;;;;;;;8.93;3.10;;;7.70;99.90;;;;;;5001753;28;20569;-67
2021/12/20 00:12:25;;;;;;;6.13;2.00;;;7.60;99.90;;;;;;5007883;28;20571;-67
2021/12/20 00:14:52;;;;;;;7.27;3.40;;;7.70;99.90;;;;;;4999773;28;20447;-69
2021/12/20 00:17:19;;;;;;;5.30;2.57;;;7.70;99.90;;;;;;5010087;28;20529;-69
2021/12/20 00:19:46;;;;;;;3.50;2.27;;;7.60;99.90;;;;;;5023548;28;20491;-69
2021/12/20 00:22:13;;;;;;;7.67;2.90;;;7.70;99.90;;;;;;5032745;28;20545;-69
2021/12/20 00:24:40;;;;;;;5.10;2.00;;;7.70;99.90;;;;;;5005386;28;22826;-65
2021/12/20 00:27:11;;;;;;;3.13;2.03;;;7.70;99.90;;;;;;5012387;28;20701;-68
2021/12/20 00:29:38;;;;;;;5.87;1.97;;;7.60;99.90;;;;;;5005559;28;20998;-68
2021/12/20 00:32:06;;;;;;;6.67;2.10;;;7.60;99.90;;;;;;5011917;28;20478;-69
2021/12/20 00:34:35;;;;;;;2.00;1.80;;;7.50;99.90;;;;;;5001217;28;20577;-67
2021/12/20 00:37:05;;;;;;;11.43;3.37;;;7.60;99.90;;;;;;4996335;28;21905;-67
2021/12/20 00:42:17;;;;;;;8.80;2.87;;;7.60;99.90;;;;;;5003487;28;20475;-67
2021/12/20 00:44:44;;;;;;;14.93;3.10;;;7.50;99.90;;;;;;5004985;28;20465;-67
2021/12/20 00:47:12;;;;;;;4.07;3.07;;;7.50;99.90;;;;;;5002740;28;20463;-67
2021/12/20 00:49:38;;;;;;;2.73;2.43;;;7.50;99.90;;;;;;4998275;28;20479;-68
2021/12/20 00:52:06;;;;;;;2.60;2.10;;;7.50;99.90;;;;;;5002963;28;20770;-68
2021/12/20 00:54:33;;;;;;;5.10;2.17;;;7.50;99.90;;;;;;5003317;28;20442;-67
2021/12/20 00:57:00;;;;;;;7.67;2.67;;;7.50;99.90;;;;;;5007136;28;20897;-68
2021/12/20 00:59:29;;;;;;;4.87;2.43;;;7.50;99.90;;;;;;5019673;28;20494;-68
2021/12/20 01:01:56;;;;;;;2.57;1.70;;;7.50;99.90;;;;;;5005755;28;20611;-68
2021/12/20 01:04:23;;;;;;;3.13;2.33;;;7.50;99.90;;;;;;5002145;28;20481;-68
2021/12/20 01:06:50;;;;;;;4.67;3.03;;;7.50;99.90;;;;;;5003597;28;20670;-67
2021/12/20 01:09:17;;;;;;;7.57;2.57;;;7.60;99.90;;;;;;5005322;28;21022;-68
2021/12/20 01:11:50;;;;;;;6.27;2.20;;;7.60;99.90;;;;;;4999434;28;20773;-68
2021/12/20 01:14:22;;;;;;;6.83;1.40;;;7.50;99.90;;;;;;5007379;28;21577;-68
2021/12/20 01:16:51;;;;;;;17.13;2.23;;;7.50;99.90;;;;;;5001739;28;20454;-69
2021/12/20 01:19:19;;;;;;;3.87;2.33;;;7.40;99.90;;;;;;5008984;28;20518;-68
2021/12/20 01:21:46;;;;;;;9.13;2.40;;;7.50;99.90;;;;;;5007216;28;20669;-68
2021/12/20 01:24:13;;;;;;;9.37;3.87;;;7.40;99.90;;;;;;5013941;28;20618;-67
2021/12/20 01:26:40;;;;;;;5.93;1.70;;;7.30;99.90;;;;;;5000812;28;20601;-68
2021/12/20 01:29:07;;;;;;;4.97;1.47;;;7.30;99.90;;;;;;5008899;28;20619;-68
2021/12/20 01:31:34;;;;;;;6.67;2.20;;;7.40;99.90;;;;;;5011790;28;20799;-68
2021/12/20 01:34:03;;;;;;;2.17;1.40;;;7.30;99.90;;;;;;5024500;28;20472;-68
2021/12/20 01:36:30;;;;;;;4.60;1.73;;;7.30;99.90;;;;;;5007188;28;20995;-68
2021/12/20 01:38:57;;;;;;;4.77;2.20;;;7.40;99.90;;;;;;5010298;28;20462;-68
2021/12/20 01:41:24;;;;;;;5.77;1.70;;;7.40;99.90;;;;;;5006254;28;20590;-68
2021/12/20 01:43:53;;;;;;;5.43;2.03;;;7.40;99.90;;;;;;5014471;28;20479;-68
2021/12/20 01:46:21;;;;;;;6.30;2.13;;;7.50;99.90;;;;;;5001898;28;21106;-68
2021/12/20 01:48:48;;;;;;;7.53;2.30;;;7.50;99.90;;;;;;5011054;28;20482;-68
2021/12/20 01:51:43;;;;;;;5.73;2.43;;;7.60;99.90;;;;;;5007686;28;20704;-67
2021/12/20 01:54:10;;;;;;;3.73;1.83;;;7.60;99.90;;;;;;5020724;28;20451;-69
2021/12/20 01:56:40;;;;;;;3.53;2.30;;;7.60;99.90;;;;;;5011303;28;20959;-68
2021/12/20 01:59:09;;;;;;;17.77;2.30;;;7.60;99.90;;;;;;5028761;28;20418;-67
2021/12/20 02:01:36;;;;;;;4.80;2.00;;;7.40;99.90;;;;;;5022575;28;20446;-68
2021/12/20 02:04:06;;;;;;;5.63;1.70;;;7.40;99.90;;;;;;5014675;28;20590;-66
2021/12/20 02:06:38;;;;;;;11.20;1.80;;;7.50;99.90;;;;;;5017449;28;21596;-67
2021/12/20 02:09:08;;;;;;;3.33;2.87;;;7.40;99.90;;;;;;5016486;28;20483;-69
2021/12/20 02:11:36;;;;;;;10.43;2.00;;;7.30;99.90;;;;;;4990567;28;20513;-68
2021/12/20 02:14:04;;;;;;;5.40;2.47;;;7.20;99.90;;;;;;5009520;28;20470;-69
2021/12/20 02:16:31;;;;;;;11.23;2.40;;;7.30;99.90;;;;;;5008042;28;21035;-67
2021/12/20 02:19:02;;;;;;;4.87;1.63;;;7.40;99.90;;;;;;5007544;28;20435;-68
2021/12/20 02:21:30;;;;;;;2.70;1.60;;;7.40;99.90;;;;;;5016448;28;20474;-68
2021/12/20 02:23:58;;;;;;;3.83;1.27;;;7.40;99.90;;;;;;5016625;28;20463;-67
2021/12/20 02:26:25;;;;;;;4.90;1.47;;;7.30;99.90;;;;;;5002892;28;21949;-69
2021/12/20 02:28:54;;;;;;;8.83;1.73;;;7.30;99.90;;;;;;5015288;28;20460;-67
2021/12/20 02:37:03;;;;;;;4.73;1.70;;;7.10;99.90;;;;;;5006207;28;20545;-67
2021/12/20 02:39:30;;;;;;;4.83;1.63;;;7.10;99.90;;;;;;5009590;28;20451;-68
2021/12/20 02:41:58;;;;;;;5.97;3.17;;;7.20;99.90;;;;;;5001286;28;20457;-68
2021/12/20 02:44:28;;;;;;;8.17;1.80;;;7.30;99.90;;;;;;5000850;28;20467;-67
2021/12/20 02:47:06;;;;;;;6.63;2.03;;;7.30;99.90;;;;;;5002629;28;21197;-67
2021/12/20 02:49:34;;;;;;;7.03;2.07;;;7.50;99.90;;;;;;5004472;28;20538;-67
2021/12/20 02:52:05;;;;;;;4.67;2.30;;;7.50;99.90;;;;;;5002063;28;20729;-67
2021/12/20 02:54:32;;;;;;;2.33;1.50;;;7.60;99.90;;;;;;5007407;28;20461;-67
2021/12/20 02:56:59;;;;;;;11.63;2.50;;;7.50;99.90;;;;;;4998917;28;20471;-66
2021/12/20 02:59:26;;;;;;;3.60;1.80;;;7.60;99.90;;;;;;5008635;28;20440;-67
2021/12/20 03:01:56;;;;;;;4.13;2.03;;;7.40;99.90;;;;;;5008535;28;20596;-67
2021/12/20 03:04:24;;;;;;;7.33;1.80;;;7.40;99.90;;;;;;5005373;28;20467;-68
2021/12/20 03:06:53;;;;;;;2.60;2.30;;;7.50;99.90;;;;;;4989793;28;21598;-66
2021/12/20 03:09:28;;;;;;;8.13;2.57;;;7.50;99.90;;;;;;5003215;28;20633;-67
2021/12/20 03:11:58;;;;;;;9.20;1.90;;;7.50;99.90;;;;;;5013290;28;20530;-67
2021/12/20 03:14:29;;;;;;;12.23;2.60;;;7.50;99.90;;;;;;5008272;28;20427;-67
2021/12/20 03:16:56;;;;;;;3.27;2.33;;;7.50;99.90;;;;;;5014452;28;20466;-67
2021/12/20 03:19:24;;;;;;;9.77;2.03;;;7.50;99.90;;;;;;5006221;28;20465;-68
2021/12/20 03:21:51;;;;;;;2.90;1.20;;;7.50;99.90;;;;;;5010214;28;22619;-67
2021/12/20 03:24:19;;;;;;;4.70;1.60;;;7.60;99.90;;;;;;5009808;28;21064;-68
2021/12/20 03:26:47;;;;;;;5.33;2.03;;;7.60;99.90;;;;;;5005219;28;20457;-67
2021/12/20 03:29:14;;;;;;;3.87;1.53;;;7.50;99.90;;;;;;5008706;28;20945;-68
2021/12/20 03:31:41;;;;;;;11.47;2.20;;;7.50;99.90;;;;;;5007838;28;21098;-67
2021/12/20 03:34:10;;;;;;;11.57;1.83;;;7.50;99.90;;;;;;5004031;28;20465;-67
2021/12/20 03:36:37;;;;;;;9.17;2.83;;;7.50;99.90;;;;;;4998089;28;20496;-69
2021/12/20 03:39:06;;;;;;;9.20;2.47;;;7.50;99.90;;;;;;5010274;28;20665;-68
2021/12/20 03:41:33;;;;;;;1.90;1.63;;;7.50;99.90;;;;;;5008866;28;20647;-68
2021/12/20 03:44:02;;;;;;;3.73;1.50;;;7.50;99.90;;;;;;5002420;28;20467;-68
2021/12/20 03:46:29;;;;;;;16.27;2.50;;;7.50;99.90;;;;;;4992111;28;22585;-69
2021/12/20 03:48:56;;;;;;;4.40;1.50;;;7.60;99.90;;;;;;5001203;28;20459;-68
2021/12/20 03:51:23;;;;;;;4.90;2.10;;;7.50;99.90;;;;;;5010447;28;20484;-67
2021/12/20 03:53:51;;;;;;;6.57;3.07;;;7.60;99.90;;;;;;5007191;28;20469;-68
2021/12/20 03:56:18;;;;;;;6.93;1.97;;;7.60;99.90;;;;;;5001185;28;21089;-69
2021/12/20 03:58:45;;;;;;;6.77;2.10;;;7.50;99.90;;;;;;5005710;28;20461;-70
2021/12/20 04:01:14;;;;;;;4.47;4.03;;;7.50;99.90;;;;;;5009311;28;21029;-66
2021/12/20 04:03:43;;;;;;;7.03;1.87;;;7.40;99.90;;;;;;5005584;28;20596;-67
2021/12/20 04:06:12;;;;;;;7.13;2.10;;;7.30;99.90;;;;;;5006749;28;20456;-66
2021/12/20 04:08:40;;;;;;;6.83;2.00;;;7.20;99.90;;;;;;5003760;28;20464;-66
2021/12/20 04:11:07;;;;;;;8.57;1.70;;;7.20;99.90;;;;;;5007914;28;20495;-67
2021/12/20 04:13:35;;;;;;;13.87;2.27;;;7.10;99.90;;;;;;5004785;28;20543;-69
2021/12/20 04:16:02;;;;;;;10.63;1.80;;;7.10;99.90;;;;;;5001890;28;20946;-68
2021/12/20 04:18:32;;;;;;;2.27;1.67;;;7.00;99.90;;;;;;5004951;28;20972;-69
2021/12/20 04:20:59;;;;;;;2.03;1.20;;;7.20;99.90;;;;;;4999538;28;20571;-68
2021/12/20 04:23:26;;;;;;;4.30;1.90;;;7.20;99.90;;;;;;5003041;28;20464;-67
2021/12/20 04:25:53;;;;;;;4.10;1.97;;;7.20;99.90;;;;;;5003507;28;21115;-67
2021/12/20 04:28:21;;;;;;;6.20;3.10;;;7.10;99.90;;;;;;5020816;28;20460;-67
2021/12/20 04:30:48;;;;;;;17.77;1.80;;;7.10;99.90;;;;;;5015696;28;20482;-68
2021/12/20 04:33:16;;;;;;;7.87;3.20;;;7.10;99.90;;;;;;4999105;28;20468;-67
2021/12/20 04:35:44;;;;;;;3.73;1.40;;;7.10;99.90;;;;;;4996750;28;20431;-67
2021/12/20 04:38:12;;;;;;;7.13;2.03;;;7.10;99.90;;;;;;4993192;28;20575;-67
2021/12/20 04:40:40;;;;;;;5.43;1.60;;;7.00;99.90;;;;;;4991694;28;20457;-67
2021/12/20 04:43:07;;;;;;;18.03;2.93;;;6.90;99.90;;;;;;5010206;28;20522;-69
2021/12/20 04:45:36;;;;;;;8.33;2.90;;;6.90;99.90;;;;;;4991915;28;20454;-67
2021/12/20 04:48:04;;;;;;;2.23;1.67;;;6.90;99.90;;;;;;5008883;28;20504;-68
2021/12/20 04:50:31;;;;;;;3.90;1.80;;;6.80;99.90;;;;;;5012746;28;20784;-67
2021/12/20 04:53:00;;;;;;;2.73;1.77;;;6.70;99.90;;;;;;5012689;28;20462;-67
2021/12/20 04:55:29;;;;;;;16.93;2.13;;;6.60;99.90;;;;;;4998467;28;20490;-67
2021/12/20 04:57:57;;;;;;;13.13;2.20;;;6.80;99.90;;;;;;5017867;28;20430;-68
2021/12/20 05:00:26;;;;;;;2.80;1.67;;;6.70;99.90;;;;;;5019410;28;20481;-67
2021/12/20 05:02:54;;;;;;;11.10;2.70;;;6.60;99.90;;;;;;5018343;28;20494;-67
2021/12/20 05:05:22;;;;;;;3.20;2.30;;;6.50;99.90;;;;;;5010308;28;21012;-67
2021/12/20 05:07:50;;;;;;;3.13;2.83;;;6.40;99.90;;;;;;5014867;28;20466;-68
2021/12/20 05:10:26;;;;;;;4.03;2.27;;;6.20;99.90;;;;;;5009752;28;20657;-67
2021/12/20 05:12:54;;;;;;;8.83;1.80;;;6.00;99.90;;;;;;5007548;28;20475;-67
2021/12/20 05:15:21;;;;;;;6.10;2.60;;;6.00;99.90;;;;;;5003616;28;20504;-67
2021/12/20 05:17:48;;;;;;;7.13;2.10;;;6.10;99.90;;;;;;5001028;28;20577;-68
2021/12/20 05:20:15;;;;;;;4.90;1.67;;;6.10;99.90;;;;;;4998777;28;20427;-68
2021/12/20 05:22:43;;;;;;;4.63;1.70;;;6.00;99.90;;;;;;5001026;28;20554;-67
2021/12/20 05:25:10;;;;;;;2.63;1.90;;;6.00;99.90;;;;;;4997139;28;20866;-67
2021/12/20 05:27:39;;;;;;;8.50;2.40;;;5.90;99.90;;;;;;5007776;28;20484;-71
2021/12/20 05:30:09;;;;;;;2.80;1.93;;;5.90;99.90;;;;;;5011315;28;20522;-69
2021/12/20 05:32:37;;;;;;;4.20;2.40;;;5.80;99.90;;;;;;5012584;28;21700;-68
2021/12/20 05:35:05;;;;;;;8.40;1.83;;;5.70;99.90;;;;;;5001598;28;20554;-69
2021/12/20 05:37:32;;;;;;;6.13;2.17;;;5.70;99.90;;;;;;5015945;28;20569;-69
2021/12/20 05:39:59;;;;;;;5.57;1.90;;;5.70;99.90;;;;;;5020706;28;21102;-68
2021/12/20 05:42:27;;;;;;;5.37;1.83;;;5.80;99.90;;;;;;5015085;28;21441;-69
2021/12/20 05:44:55;;;;;;;11.77;2.57;;;5.70;99.90;;;;;;4991445;28;20467;-69
2021/12/20 05:47:23;;;;;;;4.63;2.43;;;5.60;99.90;;;;;;5018646;28;20434;-69
2021/12/20 05:49:50;;;;;;;5.73;2.03;;;5.60;99.90;;;;;;5010954;28;20472;-68
2021/12/20 05:52:17;;;;;;;6.40;1.83;;;5.50;99.90;;;;;;5006373;28;20476;-70
2021/12/20 05:54:44;;;;;;;11.63;2.60;;;5.50;99.90;;;;;;5012646;28;20608;-69
2021/12/20 05:57:12;;;;;;;13.47;2.40;;;5.50;99.90;;;;;;5010703;28;20451;-69
2021/12/20 05:59:40;;;;;;;6.50;2.37;;;5.40;99.90;;;;;;4994644;28;20986;-68
2021/12/20 06:02:08;;;;;;;3.40;1.90;;;5.30;99.90;;;;;;5008923;28;20483;-69
2021/12/20 06:04:35;;;;;;;2.80;2.10;;;5.30;99.90;;;;;;5012515;28;20522;-71
2021/12/20 06:07:03;;;;;;;2.83;1.70;;;5.30;99.90;;;;;;5014318;28;20494;-70
2021/12/20 06:09:31;;;;;;;22.03;4.00;;;5.20;99.90;;;;;;4994301;28;20435;-70
2021/12/20 06:11:59;;;;;;;4.87;2.90;;;5.10;99.90;;;;;;4998628;28;21139;-69
2021/12/20 06:14:27;;;;;;;7.13;3.00;;;5.10;99.90;;;;;;5013172;28;21206;-70
2021/12/20 06:16:55;;;;;;;4.77;2.83;;;5.00;99.90;;;;;;5011889;28;20434;-67
2021/12/20 06:19:25;;;;;;;5.20;2.53;;;5.00;99.90;;;;;;5012916;28;21047;-69
2021/12/20 06:21:52;;;;;;;7.57;2.80;;;5.00;99.90;;;;;;5018249;28;20468;-68
2021/12/20 06:24:20;;;;;;;5.17;2.87;;;5.00;99.90;;;;;;5019117;28;20570;-67
2021/12/20 06:26:47;;;;;;;16.27;1.63;;;5.10;99.90;;;;;;5014238;28;20559;-68
2021/12/20 06:29:14;;;;;;;4.33;2.50;;;5.00;99.90;;;;;;5022973;28;20493;-69
2021/12/20 06:31:41;;;;;;;13.40;3.80;;;5.00;99.90;;;;;;5026138;28;21534;-68
2021/12/20 06:34:08;;;;;;;2.37;2.03;;;5.00;99.90;;;;;;5018648;28;20541;-68
2021/12/20 06:36:37;;;;;;;9.47;2.40;;;4.90;99.90;;;;;;5011195;28;20437;-68
2021/12/20 06:39:05;;;;;;;5.33;2.57;;;4.90;99.90;;;;;;5025022;28;20429;-67
2021/12/20 06:41:33;;;;;;;11.27;1.87;;;4.80;99.90;;;;;;5035908;28;20701;-69
2021/12/20 06:44:01;;;;;;;2.07;1.87;;;4.80;99.90;;;;;;5025078;28;20477;-69
2021/12/20 06:46:29;;;;;;;10.27;2.60;;;4.70;99.90;;;;;;5019079;28;20829;-69
2021/12/20 06:48:56;;;;;;;8.30;3.03;;;4.70;99.90;;;;;;5017362;28;20504;-67
2021/12/20 06:51:23;;;;;;;20.30;3.10;;;4.60;99.90;;;;;;5012066;28;21132;-70
2021/12/20 06:53:54;;;;;;;7.67;2.73;;;4.60;99.90;;;;;;5013903;28;20511;-69
2021/12/20 06:56:21;;;;;;;4.40;2.77;;;4.60;99.90;;;;;;5018988;28;20463;-69
2021/12/20 06:58:48;;;;;;;5.63;2.47;;;4.50;99.90;;;;;;5023470;28;20555;-70
2021/12/20 07:01:15;;;;;;;12.33;2.30;;;4.30;99.90;;;;;;5019440;28;20475;-69
2021/12/20 07:03:43;;;;;;;8.53;2.67;;;4.20;99.90;;;;;;5015467;28;20557;-70
2021/12/20 07:06:10;;;;;;;14.73;3.57;;;4.20;99.90;;;;;;5013062;28;20517;-70
2021/12/20 07:08:37;;;;;;;3.30;2.50;;;4.20;99.90;;;;;;5019527;28;20463;-69
2021/12/20 07:11:08;;;;;;;5.40;2.73;;;4.20;99.90;;;;;;5024417;28;20458;-69
2021/12/20 07:13:35;;;;;;;3.10;2.13;;;4.10;99.90;;;;;;5012376;28;22990;-70
2021/12/20 07:16:02;;;;;;;5.20;3.53;;;4.00;99.90;;;;;;5005125;28;20441;-66
2021/12/20 07:18:29;;;;;;;5.70;3.33;;;4.10;99.90;;;;;;5020096;28;20945;-68
2021/12/20 07:20:56;;;;;;;10.13;3.80;;;4.10;99.90;;;;;;5021369;28;20638;-68
2021/12/20 07:23:23;;;;;;;5.37;4.03;;;4.10;99.90;;;;;;5018989;28;21176;-71
2021/12/20 07:25:50;;;;;;;3.73;2.80;;;4.20;99.90;;;;;;5018737;28;20442;-69
2021/12/20 07:28:19;;;;;;;8.90;3.83;;;4.00;99.90;;;;;;5024544;28;20467;-69
2021/12/20 07:30:46;;;;;;;13.00;3.73;;;4.00;99.90;;;;;;5017804;28;20571;-68
2021/12/20 07:33:15;;;;;;;4.40;3.13;;;3.90;99.90;;;;;;5014513;28;20450;-70
2021/12/20 07:35:42;;;;;;;3.13;2.20;;;3.90;99.90;;;;;;5005844;28;20955;-69
2021/12/20 07:38:12;;;;;;;3.40;2.40;;;3.80;99.90;;;;;;5012584;28;20437;-70
2021/12/20 07:40:42;;;;;;;28.20;5.57;;;3.80;99.90;;;;;;5017579;28;20462;-68
2021/12/20 07:43:09;;;;;;;4.53;2.73;;;3.80;99.90;;;;;;5012577;28;20562;-70
2021/12/20 07:45:37;;;;;;;2.63;2.43;;;3.80;99.90;;;;;;5006053;28;20463;-71
2021/12/20 07:48:05;;;;;;;8.47;4.03;;;3.60;99.90;;;;;;5015696;28;20458;-69
2021/12/20 07:50:32;;;;;;;8.77;4.03;;;3.60;99.90;;;;;;5013874;28;20432;-70
2021/12/20 07:53:01;;;;;;;5.77;4.00;;;3.70;99.90;;;;;;5027055;28;20526;-67
2021/12/20 07:55:28;;;;;;;2.77;2.57;;;3.60;99.90;;;;;;5007656;28;20466;-71
2021/12/20 07:57:55;;;;;;;7.47;3.57;;;3.70;99.90;;;;;;5005685;28;20465;-71
2021/12/20 08:00:22;;;;;;;5.53;2.90;;;3.70;99.90;;;;;;4996758;28;20441;-68
2021/12/20 08:02:51;;;;;;;4.30;3.20;;;3.60;99.90;;;;;;5006068;28;21499;-69
2021/12/20 08:05:19;;;;;;;7.43;2.77;;;3.60;99.90;;;;;;4990518;28;20721;-68
2021/12/20 08:07:50;;;;;;;11.40;3.70;;;3.70;99.90;;;;;;5002526;28;21933;-70
2021/12/20 08:10:18;;;;;;;8.93;3.00;;;3.80;99.90;;;;;;5005354;28;20967;-68
2021/12/20 08:12:45;;;;;;;3.33;2.40;;;3.80;99.90;;;;;;5001033;28;20948;-70
2021/12/20 08:15:13;;;;;;;8.27;4.00;;;3.90;99.90;;;;;;4997592;28;20596;-68
2021/12/20 08:17:40;;;;;;;8.93;4.70;;;4.00;99.90;;;;;;5000082;28;20446;-69
2021/12/20 08:20:11;;;;;;;10.83;3.80;;;3.90;99.90;;;;;;4997250;28;20468;-70
2021/12/20 08:22:39;;;;;;;10.00;4.57;;;4.00;99.90;;;;;;5014124;28;21197;-69
2021/12/20 08:25:07;;;;;;;6.27;4.07;;;3.90;99.90;;;;;;5003170;28;20854;-69
2021/12/20 08:27:34;;;;;;;13.30;4.30;;;4.00;99.90;;;;;;5002553;28;20774;-69
2021/12/20 08:30:01;;;;;;;19.83;3.53;;;4.00;99.90;;;;;;5004405;28;20442;-69
2021/12/20 08:32:28;;;;;;;11.73;4.00;;;4.00;99.90;;;;;;5001044;28;20462;-69
2021/12/20 08:34:56;;;;;;;31.57;4.10;;;3.90;99.90;;;;;;4996857;28;20471;-71
2021/12/20 08:37:24;;;;;;;7.73;2.93;;;3.90;99.90;;;;;;4986620;28;20546;-70
2021/12/20 08:39:52;;;;;;;6.43;3.43;;;4.20;99.90;;;;;;4996686;28;21144;-70
2021/12/20 08:42:19;;;;;;;5.20;3.23;;;4.20;99.90;;;;;;4998638;28;21265;-69
2021/12/20 08:44:47;;;;;;;6.37;3.70;;;4.40;99.90;;;;;;5000168;28;20681;-69
2021/12/20 08:47:14;;;;;;;8.50;5.00;;;5.00;99.90;;;;;;5009293;28;20544;-70
2021/12/20 08:49:41;;;;;;;15.93;5.97;;;5.50;99.90;;;;;;5014355;28;20469;-69
2021/12/20 08:52:09;;;;;;;16.03;4.70;;;5.90;99.90;;;;;;5011789;28;22970;-72
2021/12/20 08:54:38;;;;;;;22.20;6.00;;;6.40;99.90;;;;;;5016186;28;20467;-69
2021/12/20 08:57:07;;;;;;;18.03;5.03;;;6.40;99.90;;;;;;5007243;28;21027;-69
2021/12/20 08:59:35;;;;;;;18.63;4.73;;;6.00;99.90;;;;;;5011481;28;20468;-70
2021/12/20 09:02:04;;;;;;;27.23;4.47;;;5.90;99.90;;;;;;5011186;28;20479;-70
2021/12/20 09:04:31;;;;;;;8.17;4.80;;;6.10;99.90;;;;;;5015562;28;20598;-71
2021/12/20 09:06:58;;;;;;;5.87;4.27;;;6.30;99.90;;;;;;5004945;28;20467;-70
2021/12/20 09:09:25;;;;;;;13.07;5.07;;;6.50;99.90;;;;;;5009034;28;20568;-69
2021/12/20 09:11:53;;;;;;;4.03;3.17;;;7.10;99.90;;;;;;5009663;28;20640;-72
2021/12/20 09:14:20;;;;;;;18.00;3.83;;;7.90;99.90;;;;;;5012938;28;21265;-70
2021/12/20 09:16:47;;;;;;;15.43;5.90;;;8.50;99.90;;;;;;5013190;28;20460;-72
2021/12/20 09:19:14;;;;;;;15.17;5.97;;;8.90;99.90;;;;;;5020967;28;20491;-70
2021/12/20 09:21:42;;;;;;;15.33;6.23;;;8.50;99.90;;;;;;5027850;28;20484;-70
2021/12/20 09:24:10;;;;;;;14.60;5.93;;;8.30;99.90;;;;;;5031097;28;20461;-71
2021/12/20 09:26:37;;;;;;;6.70;3.37;;;8.20;99.90;;;;;;5011632;28;20601;-71
2021/12/20 09:29:05;;;;;;;17.83;5.00;;;8.30;99.90;;;;;;5005129;28;20464;-72
2021/12/20 09:31:33;;;;;;;13.50;5.60;;;8.30;99.90;;;;;;5011510;28;20585;-72
2021/12/20 09:34:00;;;;;;;18.83;6.60;;;8.10;99.90;;;;;;5006353;28;20478;-71
2021/12/20 09:36:29;;;;;;;10.57;5.10;;;7.90;99.90;;;;;;5011502;28;20652;-70
2021/12/20 09:38:57;;;;;;;11.47;3.33;;;7.60;99.90;;;;;;5009250;28;20460;-70
2021/12/20 09:44:07;;;;;;;7.03;3.17;;;7.10;99.90;;;;;;5007384;28;20847;-70
2021/12/20 09:46:35;;;;;;;7.10;2.87;;;7.10;99.90;;;;;;5007369;28;20452;-68
2021/12/20 09:49:03;;;;;;;5.20;3.57;;;7.30;99.90;;;;;;5011899;28;21173;-69
2021/12/20 09:51:30;;;;;;;5.17;4.03;;;7.70;99.90;;;;;;5016275;28;21214;-68
2021/12/20 09:53:58;;;;;;;7.20;4.17;;;8.20;99.90;;;;;;5009040;28;21155;-69
2021/12/20 09:56:27;;;;;;;13.70;3.87;;;8.20;99.90;;;;;;5015706;28;20785;-69
2021/12/20 09:58:57;;;;;;;5.40;3.00;;;8.10;99.90;;;;;;5019701;28;21821;-68
2021/12/20 10:01:27;;;;;;;7.93;3.00;;;7.60;99.90;;;;;;5010112;28;20683;-70
2021/12/20 10:03:55;;;;;;;5.77;3.03;;;7.30;99.90;;;;;;5011070;28;21421;-70
2021/12/20 10:06:22;;;;;;;6.20;2.43;;;7.10;99.90;;;;;;5013236;28;20622;-68
2021/12/20 10:08:52;;;;;;;8.27;4.37;;;7.00;99.90;;;;;;5014732;28;20468;-68
2021/12/20 10:11:21;;;;;;;2.03;1.07;;;6.90;99.90;;;;;;5014163;28;20487;-69
2021/12/20 10:13:49;;;;;;;2.87;2.30;;;6.70;99.90;;;;;;5038544;28;20567;-69
2021/12/20 10:16:17;;;;;;;12.17;4.97;;;6.50;99.90;;;;;;5024612;28;20950;-70
2021/12/20 10:18:46;;;;;;;5.13;2.93;;;6.60;99.90;;;;;;5028868;28;20495;-71
2021/12/20 10:21:13;;;;;;;17.80;4.10;;;6.60;99.90;;;;;;5031039;28;20475;-70
2021/12/20 10:23:44;;;;;;;3.77;3.40;;;6.50;99.90;;;;;;5032571;28;20467;-68
2021/12/20 10:26:14;;;;;;;7.30;3.10;;;6.60;99.90;;;;;;5026831;28;20563;-70
2021/12/20 10:28:43;;;;;;;13.80;4.90;;;6.40;99.90;;;;;;5025149;28;22232;-70
2021/12/20 10:31:12;;;;;;;17.63;5.57;;;6.50;99.90;;;;;;5013782;28;20573;-70
2021/12/20 10:33:40;;;;;;;2.40;1.63;;;6.60;99.90;;;;;;5014776;28;20461;-70
2021/12/20 10:36:10;;;;;;;6.33;4.13;;;6.60;99.90;;;;;;5007116;28;20456;-68
2021/12/20 10:38:39;;;;;;;14.27;3.90;;;6.50;99.90;;;;;;5012192;28;20581;-70
2021/12/20 10:41:11;;;;;;;3.47;2.60;;;6.50;99.90;;;;;;5026150;28;20566;-69
2021/12/20 10:43:44;;;;;;;14.07;4.73;;;6.50;99.90;;;;;;5023862;28;20786;-69
2021/12/20 10:46:15;;;;;;;23.17;5.63;;;6.50;99.90;;;;;;4994971;28;20426;-70
2021/12/20 10:48:45;;;;;;;15.43;4.07;;;6.70;99.90;;;;;;5016162;28;20461;-69
2021/12/20 10:51:23;;;;;;;14.10;2.70;;;6.70;99.90;;;;;;5020865;28;20578;-69
2021/12/20 10:53:57;;;;;;;4.63;3.13;;;6.60;99.90;;;;;;5003779;28;20457;-69
2021/12/20 10:56:25;;;;;;;7.67;2.53;;;6.60;99.90;;;;;;5017355;28;20434;-69
2021/12/20 10:58:52;;;;;;;13.77;3.60;;;6.70;99.90;;;;;;5030471;28;20455;-69
2021/12/20 11:01:38;;;;;;;18.13;4.97;;;6.60;99.90;;;;;;5022650;28;20610;-69
2021/12/20 11:04:10;;;;;;;14.40;5.03;;;6.60;99.90;;;;;;5017358;28;20479;-70
2021/12/20 11:09:23;;;;;;;5.57;3.20;;;6.80;99.90;;;;;;5039686;28;20557;-69
2021/12/20 11:11:53;;;;;;;19.00;4.50;;;6.80;99.90;;;;;;5018827;28;20532;-69
2021/12/20 11:14:22;;;;;;;7.30;2.67;;;6.80;99.90;;;;;;5019037;28;20961;-70
2021/12/20 11:16:51;;;;;;;10.27;2.73;;;6.70;99.90;;;;;;5008609;28;20537;-72
2021/12/20 11:19:24;;;;;;;7.40;3.30;;;6.70;99.90;;;;;;5020423;28;20486;-70
2021/12/20 11:21:59;;;;;;;10.30;3.13;;;6.60;99.90;;;;;;5015000;28;20546;-68
2021/12/20 11:24:30;;;;;;;5.43;3.50;;;6.70;99.90;;;;;;4986814;28;20598;-70
2021/12/20 11:26:59;;;;;;;6.33;2.27;;;6.80;99.90;;;;;;4991944;28;20461;-70
2021/12/20 11:29:27;;;;;;;7.50;3.83;;;6.80;99.90;;;;;;5008438;28;20448;-70
2021/12/20 11:31:55;;;;;;;11.60;3.30;;;6.80;99.90;;;;;;5012779;28;20474;-71
2021/12/20 11:34:23;;;;;;;7.23;3.80;;;6.90;99.90;;;;;;5014667;28;20438;-72
2021/12/20 11:36:51;;;;;;;8.40;3.67;;;6.90;99.90;;;;;;5000486;28;20946;-70
2021/12/20 11:39:19;;;;;;;10.53;4.40;;;7.00;99.90;;;;;;5024692;28;22001;-71
2021/12/20 11:41:47;;;;;;;10.60;3.40;;;7.00;99.90;;;;;;5001951;28;21415;-70
2021/12/20 11:44:16;;;;;;;9.80;3.50;;;7.00;99.90;;;;;;5009007;28;21120;-70
2021/12/20 11:47:02;;;;;;;6.40;2.70;;;7.10;99.90;;;;;;5003745;28;20467;-71
2021/12/20 11:49:30;;;;;;;5.80;3.40;;;7.00;99.90;;;;;;5014244;28;20426;-71
2021/12/20 11:52:16;;;;;;;6.83;3.77;;;7.10;99.90;;;;;;5019179;28;20483;-68
2021/12/20 11:54:51;;;;;;;7.03;2.73;;;7.10;99.90;;;;;;5011890;28;20542;-70
2021/12/20 11:57:34;;;;;;;10.80;2.53;;;7.00;99.90;;;;;;5014664;28;20618;-69
2021/12/20 12:00:05;;;;;;;9.70;2.87;;;7.00;99.90;;;;;;5016644;28;20464;-70
2021/12/20 12:02:34;;;;;;;11.43;3.20;;;7.00;99.90;;;;;;5012593;28;20490;-70
2021/12/20 12:05:05;;;;;;;3.00;2.77;;;7.10;99.90;;;;;;5015379;28;20462;-70
2021/12/20 12:07:35;;;;;;;2.80;2.20;;;7.10;99.90;;;;;;5007783;28;21174;-70
2021/12/20 12:10:07;;;;;;;12.60;2.63;;;7.10;99.90;;;;;;5006052;28;20459;-71
2021/12/20 12:12:40;;;;;;;6.43;2.00;;;7.10;99.90;;;;;;5018853;28;20492;-69
2021/12/20 12:15:11;;;;;;;13.00;3.63;;;7.10;99.90;;;;;;5014008;28;20456;-69
2021/12/20 12:17:53;;;;;;;5.13;2.83;;;7.00;99.90;;;;;;5018140;28;20586;-70
2021/12/20 12:20:42;;;;;;;7.70;2.57;;;7.10;99.90;;;;;;5024565;28;20464;-70
2021/12/20 12:23:11;;;;;;;3.40;2.03;;;7.10;99.90;;;;;;5031932;28;21088;-70
2021/12/20 12:25:44;;;;;;;6.47;3.07;;;7.20;99.90;;;;;;5014913;28;20498;-69
2021/12/20 12:28:13;;;;;;;1.60;1.40;;;7.10;99.90;;;;;;5012134;28;20467;-71
2021/12/20 12:30:43;;;;;;;6.27;2.30;;;7.10;99.90;;;;;;5017633;28;20459;-70
2021/12/20 12:33:38;;;;;;;4.40;2.50;;;7.10;99.90;;;;;;5003223;28;20479;-70
2021/12/20 12:36:22;;;;;;;3.17;2.23;;;7.40;99.90;;;;;;5013098;28;20455;-68
2021/12/20 12:38:56;;;;;;;1.33;1.23;;;8.40;99.90;;;;;;5016247;28;20452;-69
2021/12/20 12:41:27;;;;;;;1.97;1.50;;;9.80;99.90;;;;;;4993574;28;20509;-70
2021/12/20 12:44:07;;;;;;;3.53;1.47;;;10.60;99.90;;;;;;4996201;28;21051;-69
2021/12/20 12:46:49;;;;;;;6.20;2.17;;;12.00;99.90;;;;;;5004119;28;21128;-68
2021/12/20 12:49:43;;;;;;;6.80;1.80;;;12.20;99.90;;;;;;4998791;28;20471;-69
2021/12/20 12:52:39;;;;;;;5.67;1.97;;;12.40;99.90;;;;;;5001989;28;20473;-68
2021/12/20 12:55:30;;;;;;;2.70;1.60;;;12.70;99.90;;;;;;5007312;28;20546;-71
2021/12/20 12:57:59;;;;;;;4.97;1.37;;;12.70;99.90;;;;;;4983437;28;20596;-69
2021/12/20 13:00:32;;;;;;;7.20;3.63;;;12.50;99.90;;;;;;4991398;28;20464;-69
2021/12/20 13:03:16;;;;;;;16.63;2.60;;;13.00;99.90;;;;;;4997885;28;20538;-71
2021/12/20 13:05:44;;;;;;;8.20;3.40;;;13.70;99.90;;;;;;5004852;28;20981;-70
2021/12/20 13:08:12;;;;;;;3.33;2.13;;;14.20;99.30;;;;;;5006176;28;22838;-70
2021/12/20 13:10:41;;;;;;;6.97;2.10;;;14.70;96.50;;;;;;5007383;28;20542;-67
2021/12/20 13:13:16;;;;;;;11.80;2.60;;;15.00;96.40;;;;;;5001720;28;20611;-68
2021/12/20 13:15:45;;;;;;;4.67;2.37;;;15.60;94.00;;;;;;4992312;28;20455;-70